Detailed Flight Report of Ibrahim CANDAN ;
Number CXD001 
Departure Aerodrome LTBJ 
Arrival Aerodrome LTFD

Map generated by the Great Circle Mapper - copyright © Karl L. Swartz.

Pilot In Command CXD001 : Ibrahim Candan
Aircraft B738 / TC-KRD
Date Of Flight 2019-11-04
Departure Time 11:35 UTC
Arrival Time 12:07 UTC
Block Time 00:32
Distance 130 Nm.
Used Fuel 3,602 Lbs.
   
Detailed Flight Log [2019/11/04 11:50:00]
Flight IATA:C001
Pilot Number:001
Company ICAO:CXD
Aircraft Type:B738
Aircraft Registration:TC-KRD
Departing Airport: LTBJ
Destination Airport: LTFD
Alternate Airport:LTFJ
Online: No
Route:DCT
Flight Level:15000
No pause
11:50 Zero fuel Weight: 132301 Lbs, Fuel Weight: 9834 Lbs
11:50 VATSIM:LTBJ 041220Z 18017KT 9999 SCT035 BKN100 24/14 Q1015 NOSIG
11:50 VATSIM:LTFD 041222Z 21011KT 170V240 7000 SHRA SCT030 BKN090 23/15 Q1013
11:52 Parking Brakes off
11:53 VR= 152 Knots
11:53 V2= 163 Knots
11:53 Take-off
11:53 Take off Weight: 141838 Lbs
11:53 Wind: 180º @ 017 Knots Heading: 345º
11:53 POS N38º 17´ 50´´ E027º 09´ 22´´
11:53 N11 94 N12 94
11:53 Gear Up: 165 Knots
11:53 Flaps:5º at 166 Knots
11:55 Flaps:2º at 234 Knots
11:55 Flaps:1º at 234 Knots
11:55 Flaps:Up at 233 Knots
11:55 Gear Down: 248 Knots
11:58 Gear Up: 280 Knots
12:00 TOC
12:0
0 Fuel Weight: 7638 Lb
12:04 TOD
12:04 Fuel Weight: 7322 Lb
12:08 Wind:212º@035 Knots Heading: 280º Ground Speed: 271 Knots Altitude 10078 ft
12:15 Flaps:1º at 202 Knots
12:15 Flaps:2º at 197 Knots
12:15 Flaps:5º at 195 Knots
12:17 Gear Down: 191 Knots
12:17 Flaps:10º at 190 Knots
12:18 Flaps:15º at 182 Knots
12:18 Flaps:25º at 169 Knots
12:18 Flaps:30º at 159 Knots
12:18 Flaps:Full at 156 Knots
12:21 TouchDown:Rate -106 ft/min Speed: 130 Knots
12:22 VATSIM:LTFD 041250Z 24009KT 7000 SHRA SCT030 BKN090 20/16 Q1013
12:22 Land
12:22 Wind:240º@009 Knots
12:22 Heading: 053º
12:22 Flight Duration: 00:29
12:22 Landing Weight: 138659 Lbs
12:22 POS N39º 33´ 09´´ E027º 00´ 37´´
12:24 Parking brakes on
12:24 Block to Block Duration: 00:32
12:24 Final Fuel: 6232 Lbls
12:24 Spent Fuel: 3602 Lbls
12:24 Flight Length: 130 NM
12:24 TOD Land Length: 68 NM

Text Link of Flight Log http://www.candanair.net/acars/logs/CXD00120191104115000.txt
   

[ Back ]